createdAt,value
2022-08-10T00:00:05.463Z,35.57
2022-08-10T00:00:35.489Z,35.60
2022-08-10T00:01:05.600Z,35.56
2022-08-10T00:01:35.713Z,35.62
2022-08-10T00:02:05.649Z,35.65
2022-08-10T00:02:35.982Z,35.59
2022-08-10T00:03:05.702Z,35.62
2022-08-10T00:03:35.726Z,35.56
2022-08-10T00:04:05.757Z,35.62
2022-08-10T00:04:35.790Z,35.56
2022-08-10T00:05:05.811Z,35.62
2022-08-10T00:05:43.038Z,35.60
2022-08-10T00:06:05.882Z,35.60
2022-08-10T00:06:35.907Z,35.60
2022-08-10T00:07:05.930Z,35.60
2022-08-10T00:07:35.993Z,35.68
2022-08-10T00:08:06.015Z,35.59
2022-08-10T00:08:36.031Z,35.63
2022-08-10T00:09:06.058Z,35.62
2022-08-10T00:09:50.589Z,35.60
2022-08-10T00:10:06.129Z,35.59
2022-08-10T00:10:36.156Z,35.62
2022-08-10T00:11:06.177Z,35.57
2022-08-10T00:11:36.225Z,35.62
2022-08-10T00:12:06.258Z,35.60
2022-08-10T00:12:53.202Z,35.60
2022-08-10T00:13:06.348Z,35.63
2022-08-10T00:13:36.372Z,35.61
2022-08-10T00:14:06.402Z,35.63
2022-08-10T00:14:36.429Z,35.63
2022-08-10T00:15:06.459Z,35.60
2022-08-10T00:15:54.266Z,35.60
2022-08-10T00:16:06.529Z,35.57
2022-08-10T00:16:36.556Z,35.65
2022-08-10T00:17:06.617Z,35.62
2022-08-10T00:17:36.641Z,35.60
2022-08-10T00:18:06.664Z,35.67
2022-08-10T00:18:36.693Z,35.62
2022-08-10T00:19:06.718Z,35.59
2022-08-10T00:20:03.785Z,35.60
2022-08-10T00:20:08.605Z,35.62
2022-08-10T00:20:36.845Z,35.60
2022-08-10T00:21:06.870Z,35.62
2022-08-10T00:21:36.899Z,35.60
2022-08-10T00:22:06.935Z,35.60
2022-08-10T00:22:36.963Z,35.53
2022-08-10T00:23:07.016Z,35.62
2022-08-10T00:23:37.053Z,35.62
2022-08-10T00:24:07.069Z,35.62
2022-08-10T00:24:41.383Z,35.66
2022-08-10T00:25:07.190Z,35.62
2022-08-10T00:25:37.220Z,35.59
2022-08-10T00:26:07.247Z,35.57
2022-08-10T00:27:50.120Z,35.63
2022-08-10T00:27:51.798Z,35.57
2022-08-10T00:28:00.720Z,35.60
2022-08-10T00:28:07.380Z,35.65
2022-08-10T00:28:37.409Z,35.57
2022-08-10T00:29:09.248Z,35.59
2022-08-10T00:29:37.486Z,35.60
2022-08-10T00:30:07.510Z,35.60
2022-08-10T00:30:37.535Z,35.63
2022-08-10T00:31:07.566Z,35.66
2022-08-10T00:31:56.000Z,35.63
2022-08-10T00:32:07.639Z,35.60
2022-08-10T00:32:37.659Z,35.60
2022-08-10T00:33:07.677Z,35.60
2022-08-10T00:33:37.791Z,35.60
2022-08-10T00:34:07.899Z,35.65
2022-08-10T00:34:38.013Z,35.63
2022-08-10T00:35:08.128Z,35.56
2022-08-10T00:35:38.237Z,35.59
2022-08-10T00:36:08.356Z,35.60
2022-08-10T00:36:38.469Z,35.56
2022-08-10T00:37:08.603Z,35.57
2022-08-10T00:37:38.602Z,35.62
2022-08-10T00:38:08.590Z,35.60
2022-08-10T00:38:38.701Z,35.57
2022-08-10T00:39:13.296Z,35.59
2022-08-10T00:39:39.462Z,35.56
2022-08-10T00:40:08.934Z,35.59
2022-08-10T00:40:38.924Z,35.62
2022-08-10T00:41:09.036Z,35.59
2022-08-10T00:41:39.153Z,35.57
2022-08-10T00:42:09.265Z,35.57
2022-08-10T00:42:39.382Z,35.62
2022-08-10T00:43:09.374Z,35.62
2022-08-10T00:43:39.402Z,35.63
2022-08-10T00:44:09.426Z,35.63
2022-08-10T00:44:39.448Z,35.59
2022-08-10T00:45:09.475Z,35.59
2022-08-10T00:45:39.494Z,35.60
2022-08-10T00:46:09.525Z,35.62
2022-08-10T00:46:39.553Z,35.60
2022-08-10T00:47:35.659Z,35.55
2022-08-10T00:47:39.628Z,35.57
2022-08-10T00:48:09.647Z,35.60
2022-08-10T00:48:39.676Z,35.59
2022-08-10T00:49:09.694Z,35.60
2022-08-10T00:49:39.719Z,35.60
2022-08-10T00:50:09.747Z,35.61
2022-08-10T00:50:39.833Z,35.60
2022-08-10T00:51:09.846Z,35.59
2022-08-10T00:51:40.515Z,35.59
2022-08-10T00:52:09.909Z,35.56
2022-08-10T00:52:39.936Z,35.62
2022-08-10T00:53:09.958Z,35.57
2022-08-10T00:53:39.985Z,35.59
2022-08-10T00:54:10.003Z,35.53
2022-08-10T00:54:40.049Z,35.61
2022-08-10T00:55:10.079Z,35.57
2022-08-10T00:57:00.894Z,35.60
2022-08-10T00:57:12.691Z,35.60
2022-08-10T00:57:16.515Z,35.57
2022-08-10T00:57:18.095Z,35.59
2022-08-10T00:57:40.293Z,35.62
2022-08-10T00:58:10.320Z,35.62
2022-08-10T00:58:40.347Z,35.60
2022-08-10T00:59:10.365Z,35.63
2022-08-10T00:59:58.916Z,35.59
2022-08-10T01:00:10.438Z,35.62
2022-08-10T01:00:40.460Z,35.62
2022-08-10T01:02:08.539Z,35.57
2022-08-10T01:02:10.297Z,35.60
2022-08-10T01:02:11.843Z,35.68
2022-08-10T01:02:40.761Z,35.60
2022-08-10T01:03:10.699Z,35.60
2022-08-10T01:04:39.693Z,35.60
2022-08-10T01:04:57.309Z,35.60
2022-08-10T01:04:59.703Z,35.63
2022-08-10T01:05:10.861Z,35.63
2022-08-10T01:05:51.102Z,35.62
2022-08-10T01:06:10.930Z,35.68
2022-08-10T01:06:41.020Z,35.65
2022-08-10T01:07:11.052Z,35.66
2022-08-10T01:07:41.073Z,35.65
2022-08-10T01:08:11.105Z,35.63
2022-08-10T01:08:41.128Z,35.63
2022-08-10T01:09:11.167Z,35.63
2022-08-10T01:09:41.183Z,35.62
2022-08-10T01:10:11.205Z,35.59
2022-08-10T01:10:41.235Z,35.63
2022-08-10T01:12:38.821Z,35.63
2022-08-10T01:12:39.280Z,35.68
2022-08-10T01:12:39.594Z,35.63
2022-08-10T01:12:41.734Z,35.65
2022-08-10T01:13:11.438Z,35.60
2022-08-10T01:13:41.460Z,35.66
2022-08-10T01:14:11.504Z,35.60
2022-08-10T01:14:41.523Z,35.60
2022-08-10T01:15:11.615Z,35.63
2022-08-10T01:15:41.641Z,35.59
2022-08-10T01:16:14.002Z,35.65
2022-08-10T01:16:41.675Z,35.65
2022-08-10T01:17:11.698Z,35.60
2022-08-10T01:17:50.521Z,35.65
2022-08-10T01:18:11.778Z,35.63
2022-08-10T01:18:41.802Z,35.65
2022-08-10T01:19:11.843Z,35.65
2022-08-10T01:19:41.858Z,35.63
2022-08-10T01:20:11.914Z,35.60
2022-08-10T01:20:41.958Z,35.70
2022-08-10T01:21:11.983Z,35.63
2022-08-10T01:21:53.976Z,35.65
2022-08-10T01:22:12.043Z,35.66
2022-08-10T01:22:42.070Z,35.63
2022-08-10T01:23:12.092Z,35.67
2022-08-10T01:23:42.121Z,35.67
2022-08-10T01:24:12.146Z,35.69
2022-08-10T01:24:42.167Z,35.66
2022-08-10T01:25:12.193Z,35.69
2022-08-10T01:26:11.178Z,35.68
2022-08-10T01:26:31.404Z,35.67
2022-08-10T01:26:42.306Z,35.66
2022-08-10T01:27:12.326Z,35.66
2022-08-10T01:27:42.358Z,35.70
2022-08-10T01:28:12.378Z,35.67
2022-08-10T01:28:42.403Z,35.69
2022-08-10T01:29:12.423Z,35.73
2022-08-10T01:29:42.454Z,35.69
2022-08-10T01:30:12.469Z,35.67
2022-08-10T01:30:42.492Z,35.66
2022-08-10T01:31:12.515Z,35.66
2022-08-10T01:31:42.531Z,35.66
2022-08-10T01:32:12.558Z,35.67
2022-08-10T01:32:42.610Z,35.71
2022-08-10T01:33:12.622Z,35.70
2022-08-10T01:34:01.964Z,35.64
2022-08-10T01:34:12.756Z,35.69
2022-08-10T01:34:42.756Z,35.70
2022-08-10T01:35:12.872Z,35.67
2022-08-10T01:35:42.987Z,35.69
2022-08-10T01:36:13.102Z,35.64
2022-08-10T01:36:43.206Z,35.67
2022-08-10T01:37:13.324Z,35.66
2022-08-10T01:37:43.434Z,35.72
2022-08-10T01:38:13.460Z,35.72
2022-08-10T01:38:43.448Z,35.70
2022-08-10T01:39:13.599Z,35.66
2022-08-10T01:39:43.636Z,35.66
2022-08-10T01:40:13.631Z,35.68
2022-08-10T01:40:43.683Z,35.71
2022-08-10T01:41:13.795Z,35.70
2022-08-10T01:41:45.575Z,35.69
2022-08-10T01:42:13.960Z,35.68
2022-08-10T01:42:44.092Z,35.70
2022-08-10T01:43:14.093Z,35.68
2022-08-10T01:43:44.118Z,35.71
2022-08-10T01:44:14.144Z,35.71
2022-08-10T01:44:44.175Z,35.71
2022-08-10T01:45:14.196Z,35.73
2022-08-10T01:45:45.444Z,35.71
2022-08-10T01:46:14.336Z,35.73
2022-08-10T01:46:44.357Z,35.70
2022-08-10T01:47:14.384Z,35.68
2022-08-10T01:47:44.381Z,35.71
2022-08-10T01:48:16.537Z,35.71
2022-08-10T01:48:44.488Z,35.70
2022-08-10T01:49:14.512Z,35.70
2022-08-10T01:49:44.539Z,35.70
2022-08-10T01:50:14.562Z,35.71
2022-08-10T01:50:53.316Z,35.69
2022-08-10T01:51:14.628Z,35.67
2022-08-10T01:51:44.652Z,35.74
2022-08-10T01:52:18.181Z,35.71
2022-08-10T01:52:44.693Z,35.70
2022-08-10T01:53:14.722Z,35.70
2022-08-10T01:53:44.738Z,35.71
2022-08-10T01:54:14.765Z,35.71
2022-08-10T01:54:44.787Z,35.71
2022-08-10T01:55:14.809Z,35.70
2022-08-10T01:55:44.828Z,35.71
2022-08-10T01:56:14.855Z,35.68
2022-08-10T01:56:44.886Z,35.73
2022-08-10T01:57:14.979Z,35.71
2022-08-10T01:57:44.992Z,35.70
2022-08-10T01:58:15.017Z,35.73
2022-08-10T01:58:45.045Z,35.74
2022-08-10T01:59:15.067Z,35.71
2022-08-10T02:00:01.864Z,35.71
2022-08-10T02:00:15.133Z,35.74
2022-08-10T02:00:45.153Z,35.73
2022-08-10T02:01:16.913Z,35.69
2022-08-10T02:01:45.373Z,35.73
2022-08-10T02:02:15.315Z,35.68
2022-08-10T02:02:45.338Z,35.73
2022-08-10T02:03:15.364Z,35.67
2022-08-10T02:04:03.746Z,35.76
2022-08-10T02:04:15.432Z,35.73
2022-08-10T02:04:45.456Z,35.71
2022-08-10T02:05:15.503Z,35.71
2022-08-10T02:05:46.507Z,35.74
2022-08-10T02:06:15.704Z,35.67
2022-08-10T02:06:45.743Z,35.71
2022-08-10T02:07:15.787Z,35.71
2022-08-10T02:07:45.864Z,35.73
2022-08-10T02:08:15.843Z,35.74
2022-08-10T02:08:45.865Z,35.68
2022-08-10T02:09:15.892Z,35.73
2022-08-10T02:09:45.917Z,35.70
2022-08-10T02:10:16.004Z,35.73
2022-08-10T02:10:46.002Z,35.71
2022-08-10T02:11:16.030Z,35.76
2022-08-10T02:12:05.762Z,35.73
2022-08-10T02:12:16.104Z,35.73
2022-08-10T02:12:46.137Z,35.71
2022-08-10T02:13:16.234Z,35.71
2022-08-10T02:13:46.223Z,35.69
2022-08-10T02:14:16.246Z,35.73
2022-08-10T02:14:46.288Z,35.70
2022-08-10T02:15:16.322Z,35.71
2022-08-10T02:16:01.940Z,35.71
2022-08-10T02:16:16.443Z,35.71
2022-08-10T02:16:46.461Z,35.73
2022-08-10T02:17:57.944Z,35.71
2022-08-10T02:18:00.422Z,35.73
2022-08-10T02:18:16.609Z,35.73
2022-08-10T02:18:46.633Z,35.69
2022-08-10T02:19:17.688Z,35.75
2022-08-10T02:19:46.654Z,35.73
2022-08-10T02:20:16.699Z,35.77
2022-08-10T02:20:46.733Z,35.73
2022-08-10T02:21:16.766Z,35.77
2022-08-10T02:22:36.038Z,35.75
2022-08-10T02:22:36.471Z,35.73
2022-08-10T02:22:47.446Z,35.71
2022-08-10T02:23:17.071Z,35.73
2022-08-10T02:23:56.869Z,35.69
2022-08-10T02:24:17.066Z,35.77
2022-08-10T02:24:47.123Z,35.74
2022-08-10T02:25:40.078Z,35.74
2022-08-10T02:25:47.196Z,35.71
2022-08-10T02:26:17.246Z,35.71
2022-08-10T02:26:47.289Z,35.75
2022-08-10T02:27:17.352Z,35.75
2022-08-10T02:27:47.400Z,35.71
2022-08-10T02:28:30.046Z,35.74
2022-08-10T02:28:47.478Z,35.74
2022-08-10T02:29:17.531Z,35.75
2022-08-10T02:29:49.215Z,35.69
2022-08-10T02:30:17.582Z,35.69
2022-08-10T02:30:47.629Z,35.74
2022-08-10T02:31:17.777Z,35.71
2022-08-10T02:31:47.770Z,35.75
2022-08-10T02:32:36.395Z,35.74
2022-08-10T02:32:52.709Z,35.75
2022-08-10T02:33:17.866Z,35.74
2022-08-10T02:33:57.073Z,35.75
2022-08-10T02:34:17.969Z,35.77
2022-08-10T02:34:48.065Z,35.72
2022-08-10T02:35:22.348Z,35.73
2022-08-10T02:35:54.153Z,35.74
2022-08-10T02:36:18.256Z,35.73
2022-08-10T02:36:48.265Z,35.75
2022-08-10T02:37:18.383Z,35.75
2022-08-10T02:37:48.382Z,35.80
2022-08-10T02:38:18.513Z,35.78
2022-08-10T02:38:58.564Z,35.72
2022-08-10T02:39:18.609Z,35.75
2022-08-10T02:39:48.598Z,35.75
2022-08-10T02:42:17.891Z,35.78
2022-08-10T02:45:01.575Z,35.75
2022-08-10T02:45:13.916Z,35.77
2022-08-10T02:45:16.072Z,35.72
2022-08-10T02:45:18.651Z,35.81
2022-08-10T02:45:18.652Z,35.77
2022-08-10T02:45:21.098Z,35.75
2022-08-10T02:45:23.391Z,35.79
2022-08-10T02:45:23.853Z,35.82
2022-08-10T02:45:27.222Z,35.76
2022-08-10T02:45:30.930Z,35.81
2022-08-10T02:45:48.973Z,35.78
2022-08-10T02:46:20.983Z,35.78
2022-08-10T02:46:49.116Z,35.81
2022-08-10T02:47:19.154Z,35.78
2022-08-10T02:47:52.228Z,35.77
2022-08-10T02:48:19.274Z,35.75
2022-08-10T02:48:49.334Z,35.78
2022-08-10T02:49:19.357Z,35.81
2022-08-10T02:49:49.397Z,35.78
2022-08-10T02:50:19.435Z,35.77
2022-08-10T02:50:49.485Z,35.78
2022-08-10T02:51:19.513Z,35.75
2022-08-10T02:52:07.291Z,35.77
2022-08-10T02:52:19.610Z,35.77
2022-08-10T02:52:49.649Z,35.75
2022-08-10T02:53:54.935Z,35.74
2022-08-10T02:53:56.579Z,35.77
2022-08-10T02:54:19.781Z,35.73
2022-08-10T02:54:49.812Z,35.78
2022-08-10T02:55:19.810Z,35.73
2022-08-10T02:55:49.851Z,35.77
2022-08-10T02:56:19.911Z,35.73
2022-08-10T02:56:49.930Z,35.75
2022-08-10T02:57:19.976Z,35.77
2022-08-10T02:58:18.169Z,35.72
2022-08-10T02:58:20.067Z,35.73
2022-08-10T02:58:50.117Z,35.69
2022-08-10T02:59:20.129Z,35.78
2022-08-10T02:59:50.181Z,35.75
2022-08-10T03:00:20.228Z,35.71
2022-08-10T03:00:50.321Z,35.74
2022-08-10T03:01:20.397Z,35.71
2022-08-10T03:01:50.351Z,35.77
2022-08-10T03:02:20.377Z,35.77
2022-08-10T03:02:50.490Z,35.73
2022-08-10T03:03:20.517Z,35.72
2022-08-10T03:03:50.524Z,35.74
2022-08-10T03:04:20.573Z,35.73
2022-08-10T03:04:56.134Z,35.71
2022-08-10T03:05:20.678Z,35.75
2022-08-10T03:05:50.724Z,35.71
2022-08-10T03:06:20.770Z,35.73
2022-08-10T03:06:50.800Z,35.73
2022-08-10T03:07:43.360Z,35.71
2022-08-10T03:07:50.888Z,35.72
2022-08-10T03:08:20.910Z,35.71
2022-08-10T03:08:50.949Z,35.77
2022-08-10T03:09:20.994Z,35.74
2022-08-10T03:09:51.052Z,35.68
2022-08-10T03:10:21.090Z,35.75
2022-08-10T03:10:51.135Z,35.75
2022-08-10T03:12:35.426Z,35.71
2022-08-10T03:12:36.019Z,35.68
2022-08-10T03:12:38.309Z,35.69
2022-08-10T03:12:51.633Z,35.72
2022-08-10T03:13:21.383Z,35.68
2022-08-10T03:13:59.516Z,35.71
2022-08-10T03:14:21.481Z,35.75
2022-08-10T03:14:51.505Z,35.75
2022-08-10T03:15:21.573Z,35.75
2022-08-10T03:15:51.619Z,35.69
2022-08-10T03:16:21.671Z,35.68
2022-08-10T03:16:51.740Z,35.69
2022-08-10T03:17:21.766Z,35.69
2022-08-10T03:17:57.171Z,35.69
2022-08-10T03:18:21.857Z,35.75
2022-08-10T03:18:51.902Z,35.66
2022-08-10T03:20:33.463Z,35.69
2022-08-10T03:20:36.031Z,35.72
2022-08-10T03:20:37.549Z,35.72
2022-08-10T03:20:52.085Z,35.74
2022-08-10T03:21:22.116Z,35.72
2022-08-10T03:21:52.147Z,35.72
2022-08-10T03:22:22.181Z,35.69
2022-08-10T03:22:52.242Z,35.69
2022-08-10T03:23:22.286Z,35.69
2022-08-10T03:23:52.337Z,35.69
2022-08-10T03:24:30.225Z,35.74
2022-08-10T03:24:52.433Z,35.68
2022-08-10T03:25:22.453Z,35.72
2022-08-10T03:25:53.629Z,35.68
2022-08-10T03:26:22.539Z,35.67
2022-08-10T03:26:52.615Z,35.72
2022-08-10T03:27:22.676Z,35.72
2022-08-10T03:27:52.721Z,35.65
2022-08-10T03:28:22.830Z,35.69
2022-08-10T03:28:52.858Z,35.69
2022-08-10T03:29:22.938Z,35.75
2022-08-10T03:30:29.324Z,35.69
2022-08-10T03:30:29.972Z,35.71
2022-08-10T03:30:53.059Z,35.71
2022-08-10T03:31:23.092Z,35.72
2022-08-10T03:31:53.106Z,35.74
2022-08-10T03:32:23.136Z,35.72
2022-08-10T03:32:53.713Z,35.69
2022-08-10T03:33:23.177Z,35.68
2022-08-10T03:33:53.173Z,35.65
2022-08-10T03:34:33.417Z,35.63
2022-08-10T03:34:53.306Z,35.68
2022-08-10T03:35:23.288Z,35.66
2022-08-10T03:36:42.830Z,35.74
2022-08-10T03:36:42.926Z,35.74
2022-08-10T03:36:53.422Z,35.63
2022-08-10T03:37:23.534Z,35.69
2022-08-10T03:37:58.156Z,35.69
2022-08-10T03:38:23.671Z,35.71
2022-08-10T03:38:53.665Z,35.71
2022-08-10T03:39:23.832Z,35.68
2022-08-10T03:39:53.856Z,35.68
2022-08-10T03:40:23.825Z,35.72
2022-08-10T03:40:53.837Z,35.72
2022-08-10T03:41:23.958Z,35.72
2022-08-10T03:41:54.323Z,35.69
2022-08-10T03:42:24.099Z,35.69
2022-08-10T03:42:54.215Z,35.72
2022-08-10T03:43:24.235Z,35.72
2022-08-10T03:43:54.282Z,35.69
2022-08-10T03:44:24.291Z,35.72
2022-08-10T03:44:54.331Z,35.69
2022-08-10T03:45:24.355Z,35.71
2022-08-10T03:45:56.446Z,35.68
2022-08-10T03:46:24.460Z,35.74
2022-08-10T03:46:54.482Z,35.78
2022-08-10T03:47:24.509Z,35.72
2022-08-10T03:47:54.534Z,35.74
2022-08-10T03:48:24.560Z,35.78
2022-08-10T03:48:54.609Z,35.75
2022-08-10T03:49:24.637Z,35.82
2022-08-10T03:49:54.661Z,35.87
2022-08-10T03:50:24.758Z,35.86
2022-08-10T03:50:54.803Z,36.00
2022-08-10T03:51:24.845Z,35.96
2022-08-10T03:51:54.868Z,35.92
2022-08-10T03:52:24.893Z,35.93
2022-08-10T03:52:54.945Z,35.92
2022-08-10T03:54:03.817Z,35.92
2022-08-10T03:54:04.398Z,35.89
2022-08-10T03:54:25.139Z,35.84
2022-08-10T03:54:55.169Z,35.87
2022-08-10T03:56:26.971Z,35.86
2022-08-10T03:56:28.561Z,35.87
2022-08-10T03:56:29.156Z,35.87
2022-08-10T03:56:55.328Z,35.83
2022-08-10T03:57:25.377Z,35.78
2022-08-10T03:57:55.406Z,36.00
2022-08-10T03:58:25.437Z,35.90
2022-08-10T03:58:55.468Z,35.95
2022-08-10T03:59:25.501Z,35.97
2022-08-10T03:59:55.526Z,36.03
2022-08-10T04:00:25.552Z,36.02
2022-08-10T04:00:55.642Z,36.02
2022-08-10T04:02:43.820Z,35.98
2022-08-10T04:02:45.594Z,35.98
2022-08-10T04:02:46.397Z,36.00
2022-08-10T04:02:56.107Z,35.98
2022-08-10T04:03:25.859Z,36.08
2022-08-10T04:04:11.577Z,36.11
2022-08-10T04:04:26.248Z,36.09
2022-08-10T04:04:56.079Z,36.05
2022-08-10T04:05:26.097Z,36.05
2022-08-10T04:05:56.141Z,36.12
2022-08-10T04:06:26.168Z,36.14
2022-08-10T04:06:56.339Z,36.18
2022-08-10T04:07:26.267Z,36.22
2022-08-10T04:07:56.292Z,36.27
2022-08-10T04:08:26.340Z,36.26
2022-08-10T04:08:56.382Z,36.20
2022-08-10T04:09:42.621Z,36.23
2022-08-10T04:09:56.561Z,36.21
2022-08-10T04:10:26.534Z,36.26
2022-08-10T04:10:56.601Z,36.32
2022-08-10T04:11:26.634Z,36.24
2022-08-10T04:11:56.651Z,36.24
2022-08-10T04:12:26.762Z,36.27
2022-08-10T04:12:56.694Z,36.26
2022-08-10T04:13:26.799Z,36.25
2022-08-10T04:13:56.824Z,36.27
2022-08-10T04:14:38.521Z,36.20
2022-08-10T04:14:56.911Z,36.24
2022-08-10T04:15:26.926Z,36.26
2022-08-10T04:15:56.955Z,36.17
2022-08-10T04:16:26.977Z,36.15
2022-08-10T04:16:57.007Z,36.17
2022-08-10T04:18:03.975Z,36.14
2022-08-10T04:18:04.982Z,36.12
2022-08-10T04:18:27.134Z,36.14
2022-08-10T04:18:57.171Z,36.00
2022-08-10T04:19:27.194Z,36.04
2022-08-10T04:19:57.280Z,36.07
2022-08-10T04:20:29.897Z,36.11
2022-08-10T04:20:57.384Z,36.11
2022-08-10T04:21:27.406Z,36.14
2022-08-10T04:21:57.435Z,36.20
2022-08-10T04:22:27.468Z,36.27
2022-08-10T04:22:57.504Z,36.22
2022-08-10T04:23:27.587Z,36.65
2022-08-10T04:23:57.650Z,36.31
2022-08-10T04:24:33.103Z,36.40
2022-08-10T04:24:57.729Z,36.53
2022-08-10T04:25:27.750Z,36.70
2022-08-10T04:25:57.770Z,36.65
2022-08-10T04:26:27.798Z,36.58
2022-08-10T04:26:57.835Z,36.54
2022-08-10T04:27:27.847Z,36.71
2022-08-10T04:27:57.879Z,36.62
2022-08-10T04:28:27.900Z,36.56
2022-08-10T04:28:57.939Z,36.49
2022-08-10T04:29:27.963Z,36.47
2022-08-10T04:29:58.001Z,36.48
2022-08-10T04:30:28.040Z,36.54
2022-08-10T04:30:58.050Z,35.83
2022-08-10T04:31:28.106Z,35.06
2022-08-10T04:31:58.192Z,34.79
2022-08-10T04:32:28.262Z,34.20
2022-08-10T04:32:58.328Z,33.74
2022-08-10T04:33:28.337Z,34.10
2022-08-10T04:33:58.451Z,33.94
2022-08-10T04:34:28.564Z,34.30
2022-08-10T04:34:58.672Z,34.32
2022-08-10T04:35:28.784Z,34.00
2022-08-10T04:35:58.896Z,34.39
2022-08-10T04:36:29.012Z,34.57
2022-08-10T04:36:59.127Z,34.58
2022-08-10T04:37:29.238Z,34.55
2022-08-10T04:37:59.355Z,34.47
2022-08-10T04:38:29.459Z,34.74
2022-08-10T04:38:59.577Z,34.84
2022-08-10T04:39:29.789Z,34.77
2022-08-10T04:39:59.763Z,35.02
2022-08-10T04:40:31.030Z,35.20
2022-08-10T04:40:59.967Z,35.42
2022-08-10T04:41:29.962Z,35.68
2022-08-10T04:42:00.087Z,36.30
2022-08-10T04:42:30.187Z,36.42
2022-08-10T04:43:03.374Z,36.63
2022-08-10T04:43:30.349Z,36.86
2022-08-10T04:44:00.438Z,36.83
2022-08-10T04:44:30.403Z,36.89
2022-08-10T04:45:00.485Z,37.03
2022-08-10T04:45:47.432Z,37.12
2022-08-10T04:46:00.607Z,37.29
2022-08-10T04:46:43.091Z,37.41
2022-08-10T04:47:00.759Z,37.67
2022-08-10T04:47:51.211Z,37.76
2022-08-10T04:48:03.210Z,37.77
2022-08-10T04:48:42.916Z,37.78
2022-08-10T04:49:01.899Z,37.84
2022-08-10T04:49:52.147Z,37.80
2022-08-10T04:50:01.125Z,37.75
2022-08-10T04:50:31.258Z,37.95
2022-08-10T04:51:01.237Z,38.49
2022-08-10T04:51:31.294Z,38.77
2022-08-10T04:52:01.327Z,38.98
2022-08-10T04:52:31.353Z,39.12
2022-08-10T04:53:01.382Z,39.47
2022-08-10T04:53:31.409Z,39.71
2022-08-10T04:54:03.146Z,39.93
2022-08-10T04:54:31.546Z,39.61
2022-08-10T04:55:01.580Z,39.54
2022-08-10T04:55:31.605Z,39.39
2022-08-10T04:56:01.636Z,39.50
2022-08-10T04:56:32.399Z,39.34
2022-08-10T04:57:01.715Z,39.41
2022-08-10T04:57:31.761Z,39.52
2022-08-10T04:58:01.785Z,39.61
2022-08-10T04:58:31.818Z,39.55
2022-08-10T04:59:01.841Z,39.67
2022-08-10T04:59:31.864Z,39.62
2022-08-10T05:00:01.894Z,39.67
2022-08-10T05:00:32.005Z,39.79
2022-08-10T05:01:02.060Z,39.86
2022-08-10T05:02:22.339Z,40.02
2022-08-10T05:02:28.129Z,39.89
2022-08-10T05:02:32.426Z,39.99
2022-08-10T05:03:02.219Z,39.90
2022-08-10T05:03:32.281Z,39.95
2022-08-10T05:04:34.973Z,39.99
2022-08-10T05:04:35.097Z,39.92
2022-08-10T05:05:02.429Z,40.16
2022-08-10T05:05:32.457Z,40.19
2022-08-10T05:06:02.478Z,40.12
2022-08-10T05:06:32.508Z,40.04
2022-08-10T05:07:02.536Z,39.96
2022-08-10T05:07:32.563Z,39.95
2022-08-10T05:08:02.611Z,39.96
2022-08-10T05:08:32.652Z,40.03
2022-08-10T05:09:02.681Z,40.22
2022-08-10T05:09:32.733Z,40.12
2022-08-10T05:10:07.436Z,40.06
2022-08-10T05:10:32.801Z,40.12
2022-08-10T05:11:02.833Z,40.13
2022-08-10T05:11:32.864Z,40.14
2022-08-10T05:12:02.878Z,40.13
2022-08-10T05:12:35.718Z,40.26
2022-08-10T05:13:02.977Z,40.25
2022-08-10T05:13:33.001Z,40.27
2022-08-10T05:14:03.039Z,40.11
2022-08-10T05:14:33.115Z,40.22
2022-08-10T05:15:03.140Z,40.06
2022-08-10T05:15:33.177Z,39.82
2022-08-10T05:16:03.204Z,39.78
2022-08-10T05:16:33.228Z,39.74
2022-08-10T05:17:03.258Z,39.72
2022-08-10T05:17:33.302Z,39.70
2022-08-10T05:18:09.507Z,39.45
2022-08-10T05:18:33.382Z,39.60
2022-08-10T05:19:03.415Z,39.60
2022-08-10T05:20:04.725Z,39.54
2022-08-10T05:20:06.667Z,39.62
2022-08-10T05:20:33.562Z,39.50
2022-08-10T05:21:03.596Z,39.37
2022-08-10T05:21:57.065Z,39.17
2022-08-10T05:22:05.085Z,39.30
2022-08-10T05:22:33.714Z,39.40
2022-08-10T05:23:03.742Z,39.45
2022-08-10T05:23:33.764Z,39.55
2022-08-10T05:24:03.800Z,39.41
2022-08-10T05:24:33.825Z,39.31
2022-08-10T05:25:03.853Z,39.19
2022-08-10T05:25:37.497Z,39.25
2022-08-10T05:26:03.925Z,39.38
2022-08-10T05:26:35.262Z,39.39
2022-08-10T05:27:10.140Z,39.35
2022-08-10T05:27:34.090Z,39.47
2022-08-10T05:28:06.555Z,39.49
2022-08-10T05:28:34.153Z,39.48
2022-08-10T05:29:04.178Z,39.41
2022-08-10T05:29:34.204Z,39.39
2022-08-10T05:30:04.350Z,39.58
2022-08-10T05:30:34.245Z,39.73
2022-08-10T05:31:04.256Z,39.60
2022-08-10T05:31:34.289Z,39.58
2022-08-10T05:32:04.301Z,39.47
2022-08-10T05:32:55.455Z,39.43
2022-08-10T05:33:08.522Z,39.51
2022-08-10T05:33:34.458Z,39.73
2022-08-10T05:34:04.573Z,39.69
2022-08-10T05:34:34.608Z,39.58
2022-08-10T05:35:04.640Z,39.47
2022-08-10T05:35:55.554Z,39.44
2022-08-10T05:36:04.635Z,39.34
2022-08-10T05:36:34.752Z,39.54
2022-08-10T05:37:04.760Z,39.46
2022-08-10T05:38:10.693Z,39.34
2022-08-10T05:38:12.502Z,39.37
2022-08-10T05:38:34.900Z,39.38
2022-08-10T05:39:05.056Z,39.27
2022-08-10T05:39:35.101Z,39.27
2022-08-10T05:40:05.125Z,39.51
2022-08-10T05:40:35.121Z,39.30
2022-08-10T05:41:05.106Z,39.37
2022-08-10T05:41:35.220Z,39.35
2022-08-10T05:42:05.334Z,39.31
2022-08-10T05:42:35.640Z,39.32
2022-08-10T05:43:05.533Z,39.27
2022-08-10T05:43:35.560Z,39.30
2022-08-10T05:44:05.605Z,39.27
2022-08-10T05:44:35.652Z,39.22
2022-08-10T05:45:05.674Z,39.30
2022-08-10T05:46:19.387Z,39.19
2022-08-10T05:46:19.451Z,39.22
2022-08-10T05:46:35.788Z,39.10
2022-08-10T05:47:09.663Z,39.16
2022-08-10T05:48:55.303Z,39.13
2022-08-10T05:48:55.463Z,39.14
2022-08-10T05:48:55.571Z,39.23
2022-08-10T05:49:05.974Z,39.07
2022-08-10T05:49:35.996Z,38.98
2022-08-10T05:50:06.026Z,39.02
2022-08-10T05:50:36.063Z,38.95
2022-08-10T05:51:06.075Z,38.95
2022-08-10T05:51:36.102Z,38.88
2022-08-10T05:52:06.124Z,38.80
2022-08-10T05:52:36.389Z,38.92
2022-08-10T05:53:59.288Z,38.69
2022-08-10T05:54:02.765Z,38.75
2022-08-10T05:54:07.041Z,38.73
2022-08-10T05:54:36.275Z,38.66
2022-08-10T05:55:06.310Z,38.58
2022-08-10T05:55:36.338Z,38.44
2022-08-10T05:56:06.382Z,38.48
2022-08-10T05:56:56.099Z,38.45
2022-08-10T05:57:06.470Z,38.50
2022-08-10T05:57:36.498Z,38.39
2022-08-10T05:58:06.548Z,38.42
2022-08-10T05:58:36.618Z,38.48
2022-08-10T05:59:06.643Z,38.50
2022-08-10T06:00:30.732Z,38.55
2022-08-10T06:00:33.501Z,38.49
2022-08-10T06:00:41.818Z,38.45
2022-08-10T06:01:06.828Z,38.70
2022-08-10T06:01:36.900Z,38.84
2022-08-10T06:02:33.641Z,38.79
2022-08-10T06:02:36.950Z,38.95
2022-08-10T06:03:06.987Z,38.93
2022-08-10T06:03:37.012Z,38.98
2022-08-10T06:04:07.040Z,38.93
2022-08-10T06:04:37.069Z,38.76
2022-08-10T06:05:07.099Z,38.74
2022-08-10T06:05:37.134Z,38.81
2022-08-10T06:06:07.157Z,38.72
2022-08-10T06:06:37.187Z,38.56
2022-08-10T06:07:07.214Z,38.55
2022-08-10T06:07:37.578Z,38.55
2022-08-10T06:08:07.354Z,38.44
2022-08-10T06:08:37.366Z,38.52
2022-08-10T06:09:07.393Z,38.34
2022-08-10T06:09:37.432Z,38.46
2022-08-10T06:10:10.230Z,38.34
2022-08-10T06:10:50.871Z,38.34
2022-08-10T06:12:23.235Z,38.14
2022-08-10T06:12:26.566Z,38.04
2022-08-10T06:12:26.610Z,37.97
2022-08-10T06:12:54.919Z,37.88
2022-08-10T06:13:07.812Z,37.98
2022-08-10T06:13:59.798Z,37.71
2022-08-10T06:14:12.861Z,37.48
2022-08-10T06:14:38.346Z,37.68
2022-08-10T06:15:10.319Z,37.52
2022-08-10T06:15:51.691Z,37.66
2022-08-10T06:16:08.200Z,37.79
2022-08-10T06:16:38.204Z,37.74
2022-08-10T06:17:08.241Z,37.82
2022-08-10T06:17:38.297Z,37.82
2022-08-10T06:18:08.308Z,37.81
2022-08-10T06:18:38.355Z,37.70
2022-08-10T06:19:08.383Z,37.91
2022-08-10T06:19:38.411Z,37.95
2022-08-10T06:20:08.439Z,37.77
2022-08-10T06:20:38.466Z,37.86
2022-08-10T06:21:08.498Z,37.71
2022-08-10T06:21:38.523Z,37.52
2022-08-10T06:22:08.546Z,37.53
2022-08-10T06:22:38.613Z,37.41
2022-08-10T06:23:08.604Z,37.25
2022-08-10T06:23:38.634Z,37.15
2022-08-10T06:24:08.658Z,37.21
2022-08-10T06:24:50.968Z,37.25
2022-08-10T06:26:09.671Z,37.36
2022-08-10T06:26:14.715Z,37.45
2022-08-10T06:26:38.875Z,37.23
2022-08-10T06:27:08.891Z,37.41